Time;durP1;ratioP1;P1;durP2;ratioP2;P2;SDS_P1;SDS_P2;PMS_P1;PMS_P2;Temp;Humidity;BMP_temperature;BMP_pressure;BME280_temperature;BME280_humidity;BME280_pressure;Samples;Min_cycle;Max_cycle;Signal;HPM_P1;HPM_P2
2021/08/28 00:00:00;;;;;;;16.70;9.60;;;;;;;9.63;80.10;96955.88;1669730;84;25753;-86
2021/08/28 00:02:26;;;;;;;16.82;9.38;;;;;;;9.60;80.18;96961.69;1680614;84;25747;-86
2021/08/28 00:04:53;;;;;;;13.40;8.73;;;;;;;9.54;80.01;96969.82;1656197;84;25681;-86
2021/08/28 00:07:20;;;;;;;15.38;9.00;;;;;;;9.44;79.98;96968.91;1664632;86;25792;-85
2021/08/28 00:09:46;;;;;;;15.88;9.88;;;;;;;9.35;80.13;96967.52;1664802;85;27377;-86
2021/08/28 00:12:13;;;;;;;17.40;9.28;;;;;;;9.33;80.34;96976.33;1664700;85;25898;-85
2021/08/28 00:14:40;;;;;;;13.68;9.15;;;;;;;9.33;80.42;96970.41;1664552;84;25844;-84
2021/08/28 00:17:06;;;;;;;15.85;9.03;;;;;;;9.31;80.37;96975.70;1664269;85;26420;-83
2021/08/28 00:19:33;;;;;;;15.65;9.70;;;;;;;9.30;80.48;96979.44;1664577;84;25836;-85
2021/08/28 00:22:00;;;;;;;16.37;10.45;;;;;;;9.31;80.49;96979.74;1664476;85;27403;-85
2021/08/28 00:24:26;;;;;;;14.85;9.30;;;;;;;9.30;80.43;96982.13;1664856;84;25708;-85
2021/08/28 00:26:54;;;;;;;14.00;8.85;;;;;;;9.29;80.37;96985.89;1664501;85;26274;-87
2021/08/28 00:29:21;;;;;;;12.98;8.65;;;;;;;9.28;80.33;96992.31;1664507;84;25735;-85
2021/08/28 00:31:47;;;;;;;17.55;9.48;;;;;;;9.23;80.30;96996.15;1674939;84;25996;-86
2021/08/28 00:34:14;;;;;;;14.38;9.35;;;;;;;9.21;80.34;96996.88;1664532;85;28018;-85
2021/08/28 00:36:41;;;;;;;10.95;7.90;;;;;;;9.16;80.23;96989.45;1669331;84;25748;-85
2021/08/28 00:39:07;;;;;;;17.65;8.15;;;;;;;9.16;80.31;96996.70;1681396;84;26308;-85
2021/08/28 00:41:34;;;;;;;13.90;8.10;;;;;;;9.16;80.26;96992.67;1665652;84;26474;-86
2021/08/28 00:44:02;;;;;;;12.33;7.78;;;;;;;9.15;80.21;96992.36;1660850;84;25855;-86
2021/08/28 00:46:29;;;;;;;10.38;7.58;;;;;;;9.15;80.22;96997.74;1661595;84;27373;-86
2021/08/28 00:48:57;;;;;;;12.85;8.10;;;;;;;9.12;80.20;96994.12;1664453;85;25811;-85
2021/08/28 00:51:23;;;;;;;10.90;6.97;;;;;;;9.10;80.25;97002.92;1664764;85;25803;-86
2021/08/28 00:53:50;;;;;;;10.75;7.17;;;;;;;9.03;80.23;97002.95;1666660;84;26402;-85
2021/08/28 00:56:17;;;;;;;12.25;8.25;;;;;;;8.98;80.32;97000.89;1679792;84;25794;-86
2021/08/28 00:58:43;;;;;;;12.88;8.40;;;;;;;9.00;80.50;97002.86;1672650;84;27418;-86
2021/08/28 01:01:19;;;;;;;16.60;9.25;;;;;;;9.02;80.57;97002.64;1670679;84;25729;-85
2021/08/28 01:03:50;;;;;;;13.38;9.05;;;;;;;9.03;80.62;97002.95;1664679;85;25267;-86
2021/08/28 01:06:55;;;;;;;14.47;8.38;;;;;;;9.02;80.60;97003.48;1664621;84;25734;-85
2021/08/28 01:09:37;;;;;;;14.75;8.35;;;;;;;9.02;80.59;97004.82;1664616;85;25856;-86
2021/08/28 01:12:14;;;;;;;11.45;7.72;;;;;;;9.02;80.65;97008.03;1671471;84;28348;-86
2021/08/28 01:14:45;;;;;;;15.53;7.00;;;;;;;9.01;80.80;97003.16;1655995;84;26036;-86
2021/08/28 01:17:14;;;;;;;13.28;7.58;;;;;;;8.96;80.75;97008.34;1664697;85;25828;-86
2021/08/28 01:20:22;;;;;;;11.03;6.90;;;;;;;8.93;80.86;97011.48;1668390;84;25867;-84
2021/08/28 01:22:50;;;;;;;15.80;7.22;;;;;;;8.91;80.92;97012.72;1664314;84;26269;-87
2021/08/28 01:25:18;;;;;;;16.93;7.53;;;;;;;8.91;81.12;97009.51;1664550;85;28216;-86
2021/08/28 01:27:59;;;;;;;16.52;7.42;;;;;;;8.95;81.19;97014.77;1664478;84;25807;-86
2021/08/28 01:30:26;;;;;;;14.00;6.53;;;;;;;8.97;81.21;97016.73;1669363;84;25299;-85
2021/08/28 01:32:53;;;;;;;8.28;5.80;;;;;;;8.97;81.20;97014.55;1673576;84;26322;-86
2021/08/28 01:35:22;;;;;;;11.50;6.15;;;;;;;8.90;81.12;97014.58;1668966;85;25724;-85
2021/08/28 01:37:50;;;;;;;10.98;6.67;;;;;;;8.89;81.21;97017.48;1689741;84;27544;-86
2021/08/28 01:40:18;;;;;;;10.93;6.67;;;;;;;8.91;81.26;97020.80;1672623;84;25880;-85
2021/08/28 01:42:46;;;;;;;17.30;7.08;;;;;;;8.91;81.22;97020.27;1700809;84;26157;-86
2021/08/28 01:45:15;;;;;;;12.25;7.17;;;;;;;8.92;81.16;97020.59;1681065;84;25796;-87
2021/08/28 01:47:43;;;;;;;16.10;6.90;;;;;;;8.89;81.18;97020.17;1691126;84;25769;-86
2021/08/28 01:50:11;;;;;;;13.90;6.85;;;;;;;8.90;81.27;97016.45;1672423;84;27874;-86
2021/08/28 01:52:39;;;;;;;13.90;7.17;;;;;;;8.88;81.22;97015.30;1643308;85;25795;-85
2021/08/28 01:55:06;;;;;;;12.28;6.83;;;;;;;8.88;81.19;97013.95;1672217;84;25956;-86
2021/08/28 01:57:33;;;;;;;8.98;6.42;;;;;;;8.87;81.22;97010.95;1672111;84;25729;-86
2021/08/28 02:00:01;;;;;;;10.05;6.60;;;;;;;8.87;81.17;97006.09;1642994;85;25788;-86
2021/08/28 02:02:28;;;;;;;8.28;6.58;;;;;;;8.84;81.18;97010.02;1691338;84;28156;-86
2021/08/28 02:04:55;;;;;;;9.00;6.58;;;;;;;8.81;81.12;97009.12;1691928;84;25297;-86
2021/08/28 02:07:32;;;;;;;8.23;5.97;;;;;;;8.70;80.96;97008.90;1672170;84;25818;-86
2021/08/28 02:10:22;;;;;;;9.68;6.45;;;;;;;8.62;81.05;97006.75;1671485;84;25868;-87
2021/08/28 02:12:54;;;;;;;8.90;6.53;;;;;;;8.60;81.09;97003.95;1672129;84;25911;-86
2021/08/28 02:15:34;;;;;;;7.50;5.65;;;;;;;8.49;80.99;97010.79;1671221;84;27370;-85
2021/08/28 02:18:20;;;;;;;8.33;6.22;;;;;;;8.44;81.06;97009.26;1681277;84;25751;-86
2021/08/28 02:20:54;;;;;;;10.13;5.90;;;;;;;8.47;81.10;97010.68;1689319;84;25836;-86
2021/08/28 02:23:38;;;;;;;7.15;6.22;;;;;;;8.47;81.03;97014.72;1672599;84;25919;-86
2021/08/28 02:26:10;;;;;;;11.15;6.60;;;;;;;8.45;80.97;97012.23;1672078;84;25805;-85
2021/08/28 02:28:51;;;;;;;9.40;5.70;;;;;;;8.43;80.87;97014.84;1686473;84;28029;-85
2021/08/28 02:31:22;;;;;;;10.25;5.75;;;;;;;8.33;80.75;97007.19;1672219;84;25839;-85
2021/08/28 02:33:50;;;;;;;10.45;6.12;;;;;;;8.30;80.78;97007.05;1687309;84;25717;-86
2021/08/28 02:36:19;;;;;;;13.50;7.28;;;;;;;8.27;80.69;97008.80;1669465;84;26502;-85
2021/08/28 02:38:48;;;;;;;9.10;5.95;;;;;;;8.23;80.64;97004.86;1664797;86;25851;-85
2021/08/28 02:41:17;;;;;;;10.35;6.50;;;;;;;8.14;80.45;97011.48;1637747;85;27551;-85
2021/08/28 02:43:46;;;;;;;9.98;6.60;;;;;;;8.10;80.61;97004.84;1665316;85;25761;-85
2021/08/28 02:46:16;;;;;;;13.08;6.85;;;;;;;8.11;80.60;97003.81;1648861;85;25885;-85
2021/08/28 02:48:44;;;;;;;10.53;6.90;;;;;;;8.10;80.62;97006.19;1664891;85;25769;-86
2021/08/28 02:51:11;;;;;;;9.85;5.97;;;;;;;8.10;80.65;97010.73;1665043;85;25808;-83
2021/08/28 02:53:42;;;;;;;7.58;5.30;;;;;;;8.04;80.55;97001.65;1638215;86;27399;-85
2021/08/28 02:56:10;;;;;;;6.72;5.20;;;;;;;8.03;80.71;97008.05;1665035;85;27116;-86
2021/08/28 02:58:36;;;;;;;7.87;5.62;;;;;;;7.98;80.63;97010.52;1666025;85;25702;-85
2021/08/28 03:01:06;;;;;;;8.68;5.12;;;;;;;7.88;80.58;97008.75;1684135;84;25842;-85
2021/08/28 03:03:34;;;;;;;9.98;5.72;;;;;;;7.76;80.56;97010.38;1668692;84;25727;-85
2021/08/28 03:06:01;;;;;;;7.78;5.42;;;;;;;7.68;80.80;97011.91;1665133;85;27344;-84
2021/08/28 03:08:28;;;;;;;8.45;5.62;;;;;;;7.73;81.05;97006.77;1665116;85;25845;-86
2021/08/28 03:10:56;;;;;;;9.75;5.20;;;;;;;7.74;81.05;97005.72;1665114;85;26522;-84
2021/08/28 03:13:23;;;;;;;13.75;7.37;;;;;;;7.75;81.03;97008.72;1665109;85;25869;-85
2021/08/28 03:15:52;;;;;;;17.02;8.35;;;;;;;7.71;80.95;97008.83;1673563;84;25754;-85
2021/08/28 03:18:22;;;;;;;15.38;7.92;;;;;;;7.69;80.95;97006.86;1673822;84;28172;-85
2021/08/28 03:20:53;;;;;;;8.85;5.33;;;;;;;7.68;80.91;97009.23;1672367;84;25728;-85
2021/08/28 03:23:24;;;;;;;10.15;6.50;;;;;;;7.61;80.73;97011.08;1670814;84;26419;-83
2021/08/28 03:25:51;;;;;;;15.08;9.43;;;;;;;7.58;80.89;97002.39;1682472;84;26332;-85
2021/08/28 03:28:19;;;;;;;16.67;9.55;;;;;;;7.57;80.88;97011.48;1666303;84;26443;-85
2021/08/28 03:30:48;;;;;;;16.60;9.73;;;;;;;7.56;80.94;97009.81;1667893;85;28208;-85
2021/08/28 03:33:20;;;;;;;16.20;10.23;;;;;;;7.56;80.92;97013.84;1666745;85;25856;-85
2021/08/28 03:35:49;;;;;;;19.93;12.23;;;;;;;7.52;80.73;97007.73;1664877;85;25732;-85
2021/08/28 03:38:17;;;;;;;20.65;12.13;;;;;;;7.44;80.64;97016.80;1664347;84;25809;-85
2021/08/28 03:40:45;;;;;;;18.40;10.88;;;;;;;7.40;80.74;97016.88;1664990;85;25942;-85
2021/08/28 03:43:12;;;;;;;26.60;15.05;;;;;;;7.41;80.86;97019.05;1664599;85;27396;-84
2021/08/28 03:45:39;;;;;;;28.83;15.68;;;;;;;7.42;80.87;97018.02;1664489;85;25779;-85
2021/08/28 03:48:07;;;;;;;38.83;18.77;;;;;;;7.42;80.84;97017.51;1664724;84;25875;-85
2021/08/28 03:50:35;;;;;;;43.05;21.73;;;;;;;7.41;80.80;97014.52;1664668;85;25789;-87
2021/08/28 03:53:02;;;;;;;46.77;22.62;;;;;;;7.38;80.75;97016.76;1664770;85;25831;-86
2021/08/28 03:55:28;;;;;;;42.50;21.42;;;;;;;7.36;80.73;97020.19;1664630;84;28212;-86
2021/08/28 03:57:55;;;;;;;68.35;28.85;;;;;;;7.35;80.74;97020.70;1664666;86;25717;-86
2021/08/28 04:00:21;;;;;;;82.30;34.55;;;;;;;7.29;80.57;97017.97;1664662;85;25685;-86
2021/08/28 04:02:48;;;;;;;95.65;38.02;;;;;;;7.28;80.75;97009.08;1664710;84;26288;-85
2021/08/28 04:05:15;;;;;;;88.52;35.13;;;;;;;7.26;80.72;97011.65;1664600;84;25706;-85
2021/08/28 04:07:41;;;;;;;75.25;30.72;;;;;;;7.23;80.73;97019.61;1664648;85;27352;-86
2021/08/28 04:10:09;;;;;;;39.60;16.90;;;;;;;7.17;80.73;97020.39;1664560;84;25768;-87
2021/08/28 04:12:35;;;;;;;18.73;9.68;;;;;;;7.11;80.86;97018.01;1664653;86;25673;-85
2021/08/28 04:15:07;;;;;;;12.07;7.40;;;;;;;7.10;81.15;97019.55;1664801;84;26457;-86
2021/08/28 04:17:33;;;;;;;15.40;7.50;;;;;;;7.14;81.39;97016.75;1665115;85;25871;-86
2021/08/28 04:20:00;;;;;;;10.38;6.08;;;;;;;7.21;81.51;97013.61;1664690;84;27411;-85
2021/08/28 04:22:26;;;;;;;8.08;5.47;;;;;;;7.26;81.48;97017.84;1680758;84;26040;-86
2021/08/28 04:24:53;;;;;;;11.50;5.45;;;;;;;7.29;81.42;97014.77;1666415;84;25832;-85
2021/08/28 04:27:20;;;;;;;9.65;5.55;;;;;;;7.26;81.33;97011.14;1669732;84;26450;-86
2021/08/28 04:29:47;;;;;;;7.08;6.17;;;;;;;7.25;81.41;97014.84;1664565;85;25805;-85
2021/08/28 04:32:13;;;;;;;9.38;5.30;;;;;;;7.28;81.45;97015.80;1682306;84;27382;-85
2021/08/28 04:34:40;;;;;;;12.30;5.20;;;;;;;7.32;81.51;97021.09;1664383;84;25945;-87
2021/08/28 04:37:06;;;;;;;11.30;5.75;;;;;;;7.33;81.55;97022.75;1664360;85;26668;-86
2021/08/28 04:39:33;;;;;;;7.75;5.28;;;;;;;7.32;81.61;97015.72;1673337;84;25965;-85
2021/08/28 04:42:00;;;;;;;8.95;5.08;;;;;;;7.33;81.74;97029.46;1656449;84;25832;-86
2021/08/28 04:44:26;;;;;;;8.33;4.87;;;;;;;7.36;81.86;97028.23;1677920;84;27438;-85
2021/08/28 04:46:53;;;;;;;5.80;4.47;;;;;;;7.40;81.97;97029.48;1664421;85;26358;-84
2021/08/28 04:49:19;;;;;;;8.93;5.42;;;;;;;7.44;82.00;97032.91;1664673;84;25705;-86
2021/08/28 04:51:46;;;;;;;11.33;5.55;;;;;;;7.50;81.99;97035.30;1664575;84;25788;-85
2021/08/28 04:54:13;;;;;;;6.50;5.42;;;;;;;7.54;82.02;97033.88;1664338;84;25911;-84
2021/08/28 04:56:39;;;;;;;8.23;4.67;;;;;;;7.58;82.08;97033.28;1664732;85;28131;-85
2021/08/28 04:59:06;;;;;;;8.25;6.05;;;;;;;7.64;82.06;97033.48;1649586;84;25791;-84
2021/08/28 05:01:33;;;;;;;12.73;6.47;;;;;;;7.69;82.08;97034.55;1676558;84;26632;-85
2021/08/28 05:03:59;;;;;;;9.35;5.72;;;;;;;7.74;82.10;97032.58;1664658;84;25890;-85
2021/08/28 05:06:26;;;;;;;13.40;7.35;;;;;;;7.80;82.18;97038.51;1664521;84;25857;-85
2021/08/28 05:08:53;;;;;;;12.63;7.50;;;;;;;7.85;82.14;97038.70;1669627;84;27353;-85
2021/08/28 05:11:19;;;;;;;9.13;6.58;;;;;;;7.89;82.13;97035.94;1682915;84;25721;-85
2021/08/28 05:13:46;;;;;;;12.80;7.95;;;;;;;7.90;82.10;97030.36;1665183;84;25834;-86
2021/08/28 05:16:12;;;;;;;12.63;7.17;;;;;;;7.95;82.12;97028.42;1667671;84;25717;-85
2021/08/28 05:18:39;;;;;;;11.50;7.40;;;;;;;8.01;82.28;97027.59;1664556;85;26302;-82
2021/08/28 05:21:06;;;;;;;11.43;6.20;;;;;;;8.05;82.37;97026.16;1664582;84;27968;-85
2021/08/28 05:23:32;;;;;;;7.95;5.40;;;;;;;8.12;82.42;97021.61;1666768;84;25796;-84
2021/08/28 05:25:59;;;;;;;9.08;6.00;;;;;;;8.17;82.59;97020.48;1665133;84;25816;-85
2021/08/28 05:28:26;;;;;;;9.93;5.85;;;;;;;8.24;82.71;97026.69;1670291;84;25750;-86
2021/08/28 05:30:52;;;;;;;14.40;6.72;;;;;;;8.32;82.73;97027.05;1664768;84;25776;-85
2021/08/28 05:33:19;;;;;;;7.40;5.80;;;;;;;8.39;82.81;97019.80;1673761;84;27378;-86
2021/08/28 05:35:46;;;;;;;17.20;6.20;;;;;;;8.48;82.95;97028.48;1664575;84;25802;-86
2021/08/28 05:38:12;;;;;;;8.73;5.87;;;;;;;8.55;83.01;97022.59;1664847;85;25721;-86
2021/08/28 05:40:39;;;;;;;10.58;6.15;;;;;;;8.64;83.10;97021.34;1671956;84;25959;-86
2021/08/28 05:43:05;;;;;;;11.60;6.83;;;;;;;8.74;83.17;97024.43;1664664;85;25271;-86
2021/08/28 05:45:32;;;;;;;12.23;6.90;;;;;;;8.83;83.22;97020.48;1665474;84;27373;-87
2021/08/28 05:47:59;;;;;;;9.63;5.72;;;;;;;8.90;83.27;97024.00;1664535;84;25740;-86
2021/08/28 05:50:25;;;;;;;9.88;6.47;;;;;;;8.98;83.34;97027.80;1664363;84;25817;-86
2021/08/28 05:52:52;;;;;;;12.40;6.30;;;;;;;9.07;83.39;97023.02;1681815;84;26408;-86
2021/08/28 05:55:18;;;;;;;11.20;6.97;;;;;;;9.16;83.43;97023.63;1664461;85;25736;-85
2021/08/28 05:57:45;;;;;;;11.65;6.22;;;;;;;9.25;83.48;97027.74;1664480;85;27213;-85
2021/08/28 06:00:13;;;;;;;11.63;6.60;;;;;;;9.36;83.58;97025.73;1669481;84;25971;-84
2021/08/28 06:02:40;;;;;;;9.43;6.30;;;;;;;9.45;83.63;97024.45;1664689;85;25766;-85
2021/08/28 06:05:09;;;;;;;10.30;6.47;;;;;;;9.55;83.71;97030.72;1664629;84;25684;-85
2021/08/28 06:07:36;;;;;;;9.38;6.28;;;;;;;9.62;83.70;97017.55;1666624;84;25741;-85
2021/08/28 06:10:05;;;;;;;8.65;6.60;;;;;;;9.73;83.73;97020.91;1669562;84;28189;-84
2021/08/28 06:12:33;;;;;;;8.13;6.55;;;;;;;9.82;83.74;97027.39;1664576;85;25731;-84
2021/08/28 06:15:00;;;;;;;9.25;6.50;;;;;;;9.89;83.75;97022.28;1664703;85;25832;-84
2021/08/28 06:17:27;;;;;;;7.92;6.42;;;;;;;9.98;83.78;97020.98;1686997;84;25776;-82
2021/08/28 06:19:53;;;;;;;7.95;5.72;;;;;;;10.06;83.79;97018.53;1669829;84;25753;-84
2021/08/28 06:22:20;;;;;;;6.62;5.80;;;;;;;10.15;83.82;97021.27;1674026;84;27386;-84
2021/08/28 06:24:46;;;;;;;6.90;5.30;;;;;;;10.26;83.93;97017.93;1664559;84;25860;-84
2021/08/28 06:27:13;;;;;;;6.20;5.37;;;;;;;10.35;83.91;97022.00;1670475;84;25727;-83
2021/08/28 06:29:40;;;;;;;7.72;6.17;;;;;;;10.44;83.87;97013.94;1664784;85;25732;-84
2021/08/28 06:32:06;;;;;;;7.80;5.87;;;;;;;10.54;83.73;97017.48;1664905;85;25760;-83
2021/08/28 06:34:33;;;;;;;6.65;5.95;;;;;;;10.60;83.70;97008.52;1664815;85;27360;-84
2021/08/28 06:37:00;;;;;;;7.70;5.72;;;;;;;10.68;83.77;97014.97;1664329;85;25860;-85
2021/08/28 06:41:02;;;;;;;8.40;5.20;;;;;;;10.90;83.76;97016.73;1848251;76;25669;-85
2021/08/28 06:43:30;;;;;;;6.53;4.85;;;;;;;10.95;83.72;97012.03;1826873;77;25760;-90
2021/08/28 06:45:57;;;;;;;5.55;4.45;;;;;;;11.10;83.76;97014.69;1827310;77;27348;-84
2021/08/28 06:48:23;;;;;;;5.90;4.97;;;;;;;11.23;83.63;97012.89;1827402;77;25790;-84
2021/08/28 06:50:50;;;;;;;5.37;4.65;;;;;;;11.33;83.42;97015.36;1827008;77;25767;-83
2021/08/28 06:53:17;;;;;;;5.95;5.12;;;;;;;11.43;83.37;97012.13;1822596;77;25760;-84
2021/08/28 06:56:18;;;;;;;5.20;4.50;;;;;;;11.61;83.15;97009.91;1876487;75;25493;-87
2021/08/28 06:58:45;;;;;;;5.97;4.70;;;;;;;11.70;83.26;97014.80;1844368;77;26345;-88
2021/08/28 07:01:12;;;;;;;4.97;4.45;;;;;;;11.85;83.13;97013.89;1837536;77;28043;-83
2021/08/28 07:06:03;;;;;;;5.30;4.80;;;;;;;12.05;82.49;97007.39;1834370;77;25525;-84
2021/08/28 07:08:30;;;;;;;5.67;4.22;;;;;;;12.10;82.46;97004.80;1790037;80;25693;-84
2021/08/28 07:10:57;;;;;;;4.70;4.20;;;;;;;12.17;82.17;97001.48;1790292;79;27474;-84
2021/08/28 07:13:23;;;;;;;5.08;4.30;;;;;;;12.25;82.04;97005.20;1790115;79;26660;-84
2021/08/28 07:15:50;;;;;;;5.70;4.10;;;;;;;12.34;81.97;97001.10;1789983;80;25700;-85
2021/08/28 07:18:16;;;;;;;5.12;4.40;;;;;;;12.36;81.62;96997.64;1790091;78;25564;-85
2021/08/28 07:20:43;;;;;;;5.15;3.70;;;;;;;12.44;81.58;96992.41;1790104;78;26333;-85
2021/08/28 07:23:10;;;;;;;4.60;3.35;;;;;;;12.50;81.30;96992.84;1790080;78;27413;-85
2021/08/28 07:25:38;;;;;;;5.65;4.05;;;;;;;12.53;80.73;96993.20;1789933;78;25743;-85
2021/08/28 07:28:10;;;;;;;3.92;3.45;;;;;;;12.56;80.87;96989.19;1785997;79;25819;-85
2021/08/28 07:30:37;;;;;;;6.33;4.28;;;;;;;12.67;80.95;96994.34;1768979;80;25943;-84
2021/08/28 07:33:03;;;;;;;3.90;3.58;;;;;;;12.78;80.97;96994.34;1767578;80;25776;-84
2021/08/28 07:35:31;;;;;;;4.85;4.35;;;;;;;12.93;80.86;96993.85;1793538;79;28241;-85
2021/08/28 07:37:59;;;;;;;4.60;3.65;;;;;;;13.09;80.85;96993.14;1793041;78;25824;-87
2021/08/28 07:40:26;;;;;;;3.20;2.90;;;;;;;13.34;80.30;97007.81;1759025;80;25791;-86
2021/08/28 07:42:54;;;;;;;3.75;2.92;;;;;;;13.60;79.75;97005.94;1762891;80;25796;-86
2021/08/28 07:45:23;;;;;;;3.67;3.37;;;;;;;13.97;79.77;96999.62;1776589;80;25907;-85
2021/08/28 07:47:50;;;;;;;3.87;3.47;;;;;;;14.38;79.58;97001.70;1782432;80;27416;-87
2021/08/28 07:50:16;;;;;;;3.45;3.15;;;;;;;14.77;78.80;96999.94;1793081;79;25757;-82
2021/08/28 07:52:43;;;;;;;3.20;2.90;;;;;;;15.18;78.07;96995.95;1790271;79;25693;-87
2021/08/28 07:55:12;;;;;;;5.00;3.05;;;;;;;15.57;77.44;97003.59;1789968;78;26016;-87
2021/08/28 07:57:41;;;;;;;2.80;2.58;;;;;;;15.96;76.72;96998.86;1790076;80;25774;-87
2021/08/28 08:00:11;;;;;;;3.45;3.00;;;;;;;16.34;76.48;97001.98;1790271;79;26860;-90
2021/08/28 08:02:39;;;;;;;4.20;3.05;;;;;;;16.64;75.64;97008.30;1790258;79;25754;-86
2021/08/28 08:05:06;;;;;;;2.37;2.17;;;;;;;16.95;75.15;97005.80;1790003;78;25716;-90
2021/08/28 08:07:32;;;;;;;6.85;2.65;;;;;;;17.25;74.63;97008.76;1790280;79;25728;-86
2021/08/28 08:09:59;;;;;;;2.83;2.30;;;;;;;17.57;74.17;97011.38;1790219;80;25667;-86
2021/08/28 08:12:26;;;;;;;11.43;2.75;;;;;;;17.96;73.69;97006.40;1775233;79;28183;-87
2021/08/28 08:14:52;;;;;;;2.22;2.02;;;;;;;18.36;73.15;96995.56;1790178;80;25692;-92
2021/08/28 08:17:19;;;;;;;5.20;1.95;;;;;;;18.73;72.31;96993.16;1788942;80;25824;-87
2021/08/28 08:19:46;;;;;;;2.75;1.80;;;;;;;18.99;71.63;96990.70;1772372;79;26393;-89
2021/08/28 08:22:13;;;;;;;3.30;1.85;;;;;;;19.35;70.95;97000.22;1801492;79;25804;-90
2021/08/28 08:24:40;;;;;;;2.77;1.92;;;;;;;19.66;70.30;96995.52;1790892;79;27599;-89
2021/08/28 08:27:06;;;;;;;2.02;1.82;;;;;;;19.96;69.66;96987.72;1789828;80;25841;-89
2021/08/28 08:29:33;;;;;;;5.03;2.02;;;;;;;20.19;68.35;96983.48;1789956;80;25623;-85
2021/08/28 08:31:59;;;;;;;2.75;1.92;;;;;;;20.32;68.27;96985.60;1789775;79;25649;-88
2021/08/28 08:34:26;;;;;;;2.00;1.80;;;;;;;20.58;67.59;96983.55;1789744;80;25724;-87
2021/08/28 08:36:53;;;;;;;2.60;1.77;;;;;;;20.75;67.38;96979.31;1789738;78;27358;-86
2021/08/28 08:39:20;;;;;;;1.77;1.67;;;;;;;20.98;66.93;96975.00;1789348;79;26458;-86
2021/08/28 08:41:48;;;;;;;1.60;1.50;;;;;;;20.99;64.98;96975.81;1767603;79;25259;-85
2021/08/28 08:44:16;;;;;;;2.60;1.25;;;;;;;21.10;65.31;96975.43;1784644;79;25910;-87
2021/08/28 08:46:44;;;;;;;1.87;1.72;;;;;;;21.39;65.19;96969.12;1787374;80;25740;-86
2021/08/28 08:49:13;;;;;;;2.40;1.72;;;;;;;21.54;63.34;96978.02;1789694;80;27433;-89
2021/08/28 08:51:40;;;;;;;1.47;1.37;;;;;;;21.60;64.05;96984.84;1789645;79;25983;-88
2021/08/28 08:54:06;;;;;;;1.50;1.30;;;;;;;21.85;63.52;96975.74;1789768;79;26485;-88
2021/08/28 08:56:36;;;;;;;1.67;1.50;;;;;;;22.11;63.13;96979.53;1787308;78;25840;-87
2021/08/28 08:59:03;;;;;;;1.85;1.30;;;;;;;22.36;62.55;96971.49;1734186;81;25591;-88
2021/08/28 09:01:30;;;;;;;1.50;1.40;;;;;;;22.58;60.85;96969.77;1735819;82;27366;-90
2021/08/28 09:03:57;;;;;;;13.70;2.15;;;;;;;22.62;60.31;96973.57;1743519;82;26521;-88
2021/08/28 09:06:24;;;;;;;1.40;1.30;;;;;;;22.75;60.15;96971.17;1746233;82;25708;-89
2021/08/28 09:08:51;;;;;;;1.62;1.40;;;;;;;22.84;60.12;96972.15;1746903;82;26471;-88
2021/08/28 09:11:30;;;;;;;1.35;1.25;;;;;;;22.88;59.58;96973.20;1731048;81;25608;-88
2021/08/28 09:14:19;;;;;;;1.52;1.42;;;;;;;22.86;59.60;96970.73;1744095;82;27456;-91
2021/08/28 09:16:48;;;;;;;3.83;1.45;;;;;;;22.93;58.78;96971.75;1746405;82;25783;-90
2021/08/28 09:19:14;;;;;;;1.80;1.10;;;;;;;22.83;58.39;96963.63;1725440;82;25852;-87
2021/08/28 09:21:41;;;;;;;2.30;1.60;;;;;;;22.89;58.24;96963.83;1734304;82;26348;-83
2021/08/28 09:24:11;;;;;;;2.02;1.55;;;;;;;22.97;58.12;96959.00;1738923;82;25674;-80
2021/08/28 09:26:42;;;;;;;1.87;1.42;;;;;;;23.00;57.42;96968.03;1729601;82;27378;-87
2021/08/28 09:29:13;;;;;;;1.20;1.10;;;;;;;23.09;57.61;96967.59;1737274;82;25902;-88
2021/08/28 09:31:47;;;;;;;2.15;1.17;;;;;;;23.20;56.79;96965.47;1726736;82;25682;-89
2021/08/28 09:34:18;;;;;;;1.40;1.30;;;;;;;23.33;55.49;96961.37;1745543;82;26314;-88
2021/08/28 09:36:45;;;;;;;1.50;1.40;;;;;;;23.14;55.95;96960.64;1726467;82;25766;-90
2021/08/28 09:39:13;;;;;;;1.15;1.15;;;;;;;23.13;55.81;96963.69;1746686;81;27277;-88
2021/08/28 09:41:40;;;;;;;1.30;1.20;;;;;;;23.22;56.67;96959.92;1712792;81;26350;-83
2021/08/28 09:44:08;;;;;;;1.32;1.22;;;;;;;23.31;56.16;96958.09;1736177;80;25819;-88
2021/08/28 09:46:37;;;;;;;1.25;1.15;;;;;;;23.41;55.54;96954.36;1748728;81;25662;-88
2021/08/28 09:49:05;;;;;;;1.52;1.42;;;;;;;23.44;55.50;96955.66;1750317;81;25853;-90
2021/08/28 09:51:39;;;;;;;1.65;1.55;;;;;;;23.48;55.55;96959.45;1733378;81;27369;-88
2021/08/28 09:54:10;;;;;;;3.25;1.45;;;;;;;23.58;55.02;96956.53;1745907;81;26548;-89
2021/08/28 09:56:43;;;;;;;1.52;1.42;;;;;;;23.67;55.12;96945.86;1749839;80;25817;-91
2021/08/28 09:59:22;;;;;;;1.50;1.40;;;;;;;23.89;54.98;96951.23;1751068;81;25887;-90
2021/08/28 10:01:49;;;;;;;1.40;1.30;;;;;;;24.06;54.59;96958.29;1746100;80;25786;-92
2021/08/28 10:04:16;;;;;;;1.60;1.50;;;;;;;24.17;54.52;96957.50;1744732;80;27368;-93
2021/08/28 10:06:47;;;;;;;1.50;1.40;;;;;;;24.29;54.72;96960.01;1752020;81;25685;-93
2021/08/28 10:09:16;;;;;;;2.10;1.80;;;;;;;24.22;53.63;96954.64;1752404;81;25693;-93
2021/08/28 10:11:49;;;;;;;1.52;1.30;;;;;;;24.12;53.35;96957.63;1731216;81;25935;-89
2021/08/28 10:14:19;;;;;;;1.42;1.30;;;;;;;24.13;52.95;96959.27;1752108;81;25755;-92
2021/08/28 10:16:48;;;;;;;2.35;1.30;;;;;;;23.95;52.25;96954.94;1752076;81;27367;-90
2021/08/28 10:19:17;;;;;;;1.50;1.40;;;;;;;23.83;52.02;96949.69;1752056;81;25758;-90
2021/08/28 10:21:46;;;;;;;1.62;1.52;;;;;;;23.69;52.53;96949.69;1751959;81;25694;-89
2021/08/28 10:24:18;;;;;;;1.40;1.30;;;;;;;23.74;52.49;96944.09;1752100;81;25777;-89
2021/08/28 10:26:45;;;;;;;2.17;1.47;;;;;;;23.77;52.55;96947.62;1752216;81;26427;-91
2021/08/28 10:29:13;;;;;;;1.70;1.60;;;;;;;23.79;52.04;96948.69;1752116;81;28032;-85
2021/08/28 10:31:41;;;;;;;1.70;1.57;;;;;;;23.81;51.06;96942.28;1740724;81;25957;-90
2021/08/28 10:34:09;;;;;;;1.75;1.65;;;;;;;23.57;51.75;96938.36;1738419;81;25790;-90
2021/08/28 10:36:36;;;;;;;2.95;1.55;;;;;;;23.58;52.56;96942.20;1733825;80;25265;-87
2021/08/28 10:39:06;;;;;;;2.67;2.02;;;;;;;23.36;51.99;96943.43;1727953;81;25671;-86
2021/08/28 10:41:36;;;;;;;1.65;1.55;;;;;;;23.16;52.08;96946.57;1721231;81;28193;-86
2021/08/28 10:44:03;;;;;;;1.95;1.60;;;;;;;22.96;52.17;96940.29;1732194;81;26562;-88
2021/08/28 10:46:32;;;;;;;2.02;1.80;;;;;;;22.90;52.39;96941.52;1734003;82;25800;-88
2021/08/28 10:49:01;;;;;;;2.10;1.80;;;;;;;22.79;52.46;96941.98;1719583;82;25984;-87
2021/08/28 10:51:34;;;;;;;2.05;1.50;;;;;;;22.59;52.53;96945.28;1732730;82;25497;-83
2021/08/28 10:54:10;;;;;;;2.42;1.70;;;;;;;22.63;52.62;96944.13;1719522;82;27430;-85
2021/08/28 10:56:55;;;;;;;3.30;1.65;;;;;;;22.76;51.98;96942.58;1743039;82;25726;-82
2021/08/28 10:59:39;;;;;;;2.52;2.02;;;;;;;22.83;51.60;96937.49;1743369;81;25809;-88
2021/08/28 11:02:10;;;;;;;2.98;1.10;;;;;;;22.92;51.85;96934.33;1714001;82;25901;-89
2021/08/28 11:04:47;;;;;;;1.90;1.80;;;;;;;23.06;51.98;96937.94;1739642;82;25525;-87
2021/08/28 11:07:31;;;;;;;1.77;1.25;;;;;;;23.09;51.39;96940.06;1724596;80;27558;-88
2021/08/28 11:10:17;;;;;;;2.42;1.50;;;;;;;23.16;51.34;96939.69;1725804;82;25707;-83
2021/08/28 11:12:50;;;;;;;2.15;1.60;;;;;;;23.17;49.77;96940.77;1735878;82;25739;-88
2021/08/28 11:15:34;;;;;;;1.52;1.42;;;;;;;22.84;50.47;96944.08;1740983;80;25383;-86
2021/08/28 11:18:04;;;;;;;2.10;1.62;;;;;;;22.80;50.32;96936.74;1723111;82;25753;-87
2021/08/28 11:20:48;;;;;;;2.17;1.37;;;;;;;22.85;50.44;96938.02;1743736;82;27391;-84
2021/08/28 11:23:21;;;;;;;1.40;1.30;;;;;;;22.84;50.46;96933.62;1724820;82;25827;-86
2021/08/28 11:25:51;;;;;;;1.65;1.30;;;;;;;22.86;49.98;96928.64;1743885;82;26011;-88
2021/08/28 11:28:21;;;;;;;1.20;1.10;;;;;;;22.91;49.91;96934.89;1743848;82;26358;-88
2021/08/28 11:30:53;;;;;;;1.30;1.20;;;;;;;22.64;50.56;96930.64;1743780;82;25786;-83
2021/08/28 11:33:33;;;;;;;1.10;1.10;;;;;;;22.22;50.82;96931.00;1744124;82;27358;-88
2021/08/28 11:36:21;;;;;;;1.45;1.32;;;;;;;22.03;50.82;96937.61;1742598;82;25809;-85
2021/08/28 11:38:50;;;;;;;1.20;1.10;;;;;;;21.71;51.12;96941.03;1743754;81;25754;-85
2021/08/28 11:41:26;;;;;;;1.17;0.98;;;;;;;21.49;51.39;96951.19;1714072;82;25747;-86
2021/08/28 11:43:55;;;;;;;1.40;1.30;;;;;;;21.30;51.00;96951.10;1743759;82;25743;-84
2021/08/28 11:46:28;;;;;;;1.17;1.17;;;;;;;21.07;51.33;96954.05;1734773;80;27536;-87